Pagrindinis puslapis
METAR-TAF:

METAR-TAF

Oro uostai :

Honiara, Gvadalkanalis, Saliamono Salos

platuma: 09-25S, ilguma: 160-03E, Aukštis: 8 m

Dabartinis oras

Ataskaita buvo paskelbta 32 minutes, ne 02:00 UTC
Vėjas 7 kt iš Šiaurės/Šiaurės Rytų
Temperatūra 30°C
Drėgmė 84%
Slėgis 1008 hPa
Matomumas 10 km arba daugiau
Išsisklaidę debesys ne aukštis 1900 ft

METAR: AGGH 210200Z 02007KT 9999 SCT019 30/27 Q1008 RMKS: TCU ASSW SH TO S

Laikas: 13:32 (02:32 UTC)

Prognozė

Ataskaita buvo paskelbta 3 valandos ir 22 minutes, ne 23:10 UTC
Prognozė galioja nuo 21 metu 00 UTC su 21 metu 24 UTC
Vėjas 10 kt iš Šiaurės/Šiaurės Vakarų
Matomumas 10 km arba daugiau
Mažai debesys ne aukštis 2000 ft
Išsisklaidę debesys ne aukštis 11000 ft
Tikimybė 40%
tarp IN ir TE UTC
Matomumas: 1009 m
Išsisklaidę debesys ne aukštis 1700 ft
Su prošvaistėmis ne aukštis 2900 ft
lietus

TAF: AGGH 202310Z 2100/2124 34010KT 9999 FEW020 SCT110 PROB40 INTER 2104/2107 5000 SHRA SCT017 BKN029 T 30 31 29 27 Q 1009 1007 1007 1009

Orai ataskaitas ir orų prognozės (METAR, TAF).

turimą stotys yra geltonos ir raudonos taškus žemėlapyje.

Perkelti pele per norėdami pamatyti stoties vardą.

Tada spustelėkite, norėdami matyti oro stebėjimo ir prognozės.

Norėdami pakeisti žemėlapį: spustelėkite ant žalios mygtukų su juodo kryžiaus žemyn,; žalią mygtuką su brūkšneliu, jei norite nutolinti; arba žalių rodyklių gretimoms žemėlapius.


METAR-TAF: